createdAt,value
2023-05-10T00:00:29.248Z,6.55
2023-05-10T00:04:44.945Z,6.45
2023-05-10T00:08:46.793Z,6.39
2023-05-10T00:12:48.659Z,6.36
2023-05-10T00:16:50.626Z,6.35
2023-05-10T00:20:52.644Z,6.34
2023-05-10T00:24:54.481Z,6.33
2023-05-10T00:28:59.575Z,6.33
2023-05-10T00:33:01.531Z,6.34
2023-05-10T00:37:03.387Z,6.32
2023-05-10T00:41:05.343Z,6.29
2023-05-10T00:45:15.442Z,6.25
2023-05-10T00:49:17.551Z,6.19
2023-05-10T00:53:20.402Z,6.13
2023-05-10T00:57:22.813Z,6.05
2023-05-10T01:01:34.230Z,5.95
2023-05-10T01:05:36.101Z,5.86
2023-05-10T01:09:38.220Z,5.81
2023-05-10T01:13:48.983Z,5.77
2023-05-10T01:17:52.207Z,5.72
2023-05-10T01:21:57.114Z,5.69
2023-05-10T01:26:26.992Z,5.66
2023-05-10T01:30:47.473Z,5.60
2023-05-10T01:35:11.491Z,5.49
2023-05-10T01:39:27.522Z,5.35
2023-05-10T01:43:36.859Z,5.22
2023-05-10T01:47:49.297Z,5.13
2023-05-10T01:52:02.090Z,5.03
2023-05-10T01:56:10.183Z,4.96
2023-05-10T02:00:14.056Z,4.90
2023-05-10T02:04:22.630Z,4.84
2023-05-10T02:08:25.789Z,4.75
2023-05-10T02:12:29.394Z,4.68
2023-05-10T02:16:32.930Z,4.60
2023-05-10T02:20:37.814Z,4.57
2023-05-10T02:24:40.838Z,4.54
2023-05-10T02:28:45.850Z,4.52
2023-05-10T02:32:57.779Z,4.49
2023-05-10T02:37:01.600Z,4.46
2023-05-10T02:41:05.971Z,4.41
2023-05-10T02:45:26.921Z,4.35
2023-05-10T02:49:28.860Z,4.27
2023-05-10T02:53:44.742Z,4.20
2023-05-10T02:58:03.352Z,4.10
2023-05-10T03:02:05.854Z,4.02
2023-05-10T03:06:08.401Z,3.98
2023-05-10T03:10:12.097Z,3.96
2023-05-10T03:14:25.592Z,3.97
2023-05-10T03:18:43.449Z,3.99
2023-05-10T03:22:52.190Z,4.01
2023-05-10T03:27:00.053Z,4.08
2023-05-10T03:31:03.410Z,4.21
2023-05-10T03:35:09.705Z,4.33
2023-05-10T03:39:12.699Z,4.47
2023-05-10T03:43:14.599Z,4.61
2023-05-10T03:47:17.792Z,4.75
2023-05-10T03:51:19.694Z,4.90
2023-05-10T03:55:21.682Z,5.09
2023-05-10T03:59:23.795Z,5.32
2023-05-10T04:03:32.511Z,5.59
2023-05-10T04:07:35.229Z,5.93
2023-05-10T04:11:37.407Z,6.28
2023-05-10T04:15:39.318Z,6.71
2023-05-10T04:19:41.242Z,7.19
2023-05-10T04:23:43.856Z,7.64
2023-05-10T04:27:45.779Z,8.11
2023-05-10T04:31:53.991Z,8.60
2023-05-10T04:35:56.462Z,9.14
2023-05-10T04:40:02.249Z,9.64
2023-05-10T04:44:04.415Z,10.17
2023-05-10T04:48:06.822Z,10.67
2023-05-10T04:52:08.764Z,11.03
2023-05-10T04:56:11.035Z,11.25
2023-05-10T05:00:17.024Z,11.58
2023-05-10T05:04:19.822Z,11.99
2023-05-10T05:08:22.520Z,12.35
2023-05-10T05:12:24.552Z,12.56
2023-05-10T05:16:35.944Z,12.61
2023-05-10T05:20:38.285Z,12.55
2023-05-10T05:24:40.125Z,12.46
2023-05-10T05:28:42.025Z,12.47
2023-05-10T05:32:43.965Z,12.46
2023-05-10T05:36:45.888Z,12.45
2023-05-10T05:40:47.795Z,12.51
2023-05-10T05:44:49.806Z,12.51
2023-05-10T05:48:51.939Z,12.51
2023-05-10T05:52:53.935Z,12.48
2023-05-10T05:56:59.768Z,12.45
2023-05-10T06:01:03.003Z,12.46
2023-05-10T06:05:05.282Z,12.51
2023-05-10T06:09:07.123Z,12.50
2023-05-10T06:13:12.470Z,12.59
2023-05-10T06:17:14.391Z,12.67
2023-05-10T06:21:16.736Z,12.74
2023-05-10T06:25:19.190Z,12.83
2023-05-10T06:29:22.410Z,12.94
2023-05-10T06:33:24.270Z,13.07
2023-05-10T06:37:26.459Z,13.22
2023-05-10T06:41:28.355Z,13.36
2023-05-10T06:45:30.309Z,13.46
2023-05-10T06:49:32.194Z,13.63
2023-05-10T06:53:34.179Z,13.80
2023-05-10T06:57:36.172Z,13.91
2023-05-10T07:01:38.062Z,14.00
2023-05-10T07:05:42.563Z,14.13
2023-05-10T07:09:44.612Z,14.28
2023-05-10T07:13:49.813Z,14.46
2023-05-10T07:17:52.505Z,14.67
2023-05-10T07:21:54.493Z,14.92
2023-05-10T07:25:57.830Z,15.16
2023-05-10T07:29:59.682Z,15.37
2023-05-10T07:34:01.720Z,15.60
2023-05-10T07:38:04.080Z,15.80
2023-05-10T07:42:06.266Z,15.87
2023-05-10T07:46:10.534Z,16.00
2023-05-10T07:50:14.768Z,16.26
2023-05-10T07:54:17.008Z,16.46
2023-05-10T07:58:19.019Z,16.49
2023-05-10T08:02:21.222Z,16.63
2023-05-10T08:06:23.855Z,16.89
2023-05-10T08:10:26.157Z,17.06
2023-05-10T08:14:31.120Z,17.08
2023-05-10T08:18:33.028Z,17.06
2023-05-10T08:22:35.107Z,17.23
2023-05-10T08:26:37.746Z,17.55
2023-05-10T08:30:39.715Z,17.66
2023-05-10T08:34:46.855Z,17.55
2023-05-10T08:38:57.931Z,17.61
2023-05-10T08:43:18.295Z,17.68
2023-05-10T08:47:26.991Z,17.70
2023-05-10T08:51:37.589Z,17.59
2023-05-10T08:55:46.223Z,17.55
2023-05-10T08:59:48.362Z,17.51
2023-05-10T09:03:51.370Z,17.51
2023-05-10T09:07:53.433Z,17.58
2023-05-10T09:11:55.686Z,17.60
2023-05-10T09:16:06.961Z,17.61
2023-05-10T09:20:12.094Z,17.70
2023-05-10T09:24:16.721Z,17.75
2023-05-10T09:28:18.634Z,17.85
2023-05-10T09:32:20.552Z,18.05
2023-05-10T09:36:22.465Z,18.14
2023-05-10T09:40:26.782Z,18.07
2023-05-10T09:44:28.628Z,18.16
2023-05-10T09:48:30.518Z,18.35
2023-05-10T09:52:52.605Z,18.39
2023-05-10T09:56:54.514Z,18.42
2023-05-10T10:00:57.717Z,18.35
2023-05-10T10:05:09.070Z,18.28
2023-05-10T10:09:11.722Z,18.37
2023-05-10T10:13:14.231Z,18.40
2023-05-10T10:17:17.168Z,18.41
2023-05-10T10:21:22.830Z,18.39
2023-05-10T10:25:27.454Z,18.29
2023-05-10T10:30:05.650Z,18.23
2023-05-10T10:34:18.234Z,18.28
2023-05-10T10:38:23.779Z,18.41
2023-05-10T10:42:47.895Z,18.62
2023-05-10T10:47:03.292Z,18.78
2023-05-10T10:51:05.250Z,18.79
2023-05-10T10:55:33.229Z,18.72
2023-05-10T10:59:35.096Z,18.75
2023-05-10T11:03:37.164Z,18.90
2023-05-10T11:07:58.447Z,18.93
2023-05-10T11:12:00.981Z,18.98
2023-05-10T11:16:12.430Z,18.91
2023-05-10T11:20:27.322Z,18.88
2023-05-10T11:24:29.205Z,18.89
2023-05-10T11:28:31.172Z,18.97
2023-05-10T11:32:34.501Z,19.03
2023-05-10T11:36:37.244Z,19.06
2023-05-10T11:40:43.138Z,19.05
2023-05-10T11:44:47.630Z,19.09
2023-05-10T11:48:54.896Z,19.03
2023-05-10T11:52:57.415Z,18.98
2023-05-10T11:57:01.591Z,18.88
2023-05-10T12:01:13.122Z,18.95
2023-05-10T12:05:15.704Z,18.97
2023-05-10T12:09:19.262Z,18.94
2023-05-10T12:13:31.828Z,19.07
2023-05-10T12:17:34.170Z,19.04
2023-05-10T12:21:36.229Z,19.09
2023-05-10T12:25:39.902Z,19.11
2023-05-10T12:29:45.021Z,19.16
2023-05-10T12:33:47.908Z,19.26
2023-05-10T12:37:51.879Z,19.40
2023-05-10T12:41:53.942Z,19.43
2023-05-10T12:45:56.322Z,19.49
2023-05-10T12:49:58.373Z,19.46
2023-05-10T12:54:00.416Z,19.44
2023-05-10T12:58:02.325Z,19.30
2023-05-10T13:02:04.233Z,19.26
2023-05-10T13:06:06.995Z,19.33
2023-05-10T13:10:08.968Z,19.29
2023-05-10T13:14:10.828Z,19.28
2023-05-10T13:18:12.808Z,19.30
2023-05-10T13:22:25.627Z,19.26
2023-05-10T13:26:35.133Z,19.17
2023-05-10T13:30:37.068Z,19.21
2023-05-10T13:34:38.953Z,19.18
2023-05-10T13:38:40.782Z,19.16
2023-05-10T13:42:42.853Z,19.25
2023-05-10T13:46:44.929Z,19.20
2023-05-10T13:50:47.164Z,19.16
2023-05-10T13:54:50.835Z,19.18
2023-05-10T13:58:52.780Z,19.14
2023-05-10T14:02:55.363Z,19.04
2023-05-10T14:06:57.482Z,18.99
2023-05-10T14:10:59.740Z,18.96
2023-05-10T14:15:01.823Z,18.84
2023-05-10T14:19:04.842Z,18.81
2023-05-10T14:23:11.682Z,18.75
2023-05-10T14:27:22.473Z,18.71
2023-05-10T14:31:26.462Z,18.77
2023-05-10T14:35:29.009Z,18.80
2023-05-10T14:39:40.706Z,18.87
2023-05-10T14:43:44.961Z,18.90
2023-05-10T14:47:46.832Z,18.81
2023-05-10T14:51:49.320Z,18.80
2023-05-10T14:55:51.205Z,18.77
2023-05-10T14:59:53.041Z,18.71
2023-05-10T15:03:55.500Z,18.76
2023-05-10T15:07:58.028Z,18.72
2023-05-10T15:12:01.115Z,18.67
2023-05-10T15:16:03.724Z,18.61
2023-05-10T15:20:06.858Z,18.61
2023-05-10T15:24:10.225Z,18.55
2023-05-10T15:28:12.225Z,18.48
2023-05-10T15:32:14.910Z,18.46
2023-05-10T15:36:19.717Z,18.39
2023-05-10T15:40:21.757Z,18.34
2023-05-10T15:44:32.051Z,18.33
2023-05-10T15:48:33.956Z,18.35
2023-05-10T15:52:36.676Z,18.31
2023-05-10T15:56:39.249Z,18.27
2023-05-10T16:00:41.171Z,18.26
2023-05-10T16:04:44.144Z,18.30
2023-05-10T16:08:45.964Z,18.28
2023-05-10T16:12:47.835Z,18.25
2023-05-10T16:16:50.110Z,18.23
2023-05-10T16:20:53.521Z,18.15
2023-05-10T16:24:57.217Z,18.04
2023-05-10T16:29:01.932Z,17.90
2023-05-10T16:33:03.974Z,17.75
2023-05-10T16:37:06.251Z,17.60
2023-05-10T16:41:08.169Z,17.46
2023-05-10T16:45:10.758Z,17.34
2023-05-10T16:49:12.621Z,17.18
2023-05-10T16:53:14.758Z,17.05
2023-05-10T16:57:24.892Z,16.97
2023-05-10T17:01:27.313Z,16.85
2023-05-10T17:05:29.981Z,16.72
2023-05-10T17:09:32.988Z,16.62
2023-05-10T17:13:35.020Z,16.53
2023-05-10T17:17:37.590Z,16.40
2023-05-10T17:21:39.972Z,16.20
2023-05-10T17:25:44.125Z,16.03
2023-05-10T17:29:46.374Z,15.83
2023-05-10T17:33:48.207Z,15.64
2023-05-10T17:37:52.540Z,15.47
2023-05-10T17:41:54.474Z,15.31
2023-05-10T17:46:05.951Z,15.16
2023-05-10T17:50:12.830Z,15.02
2023-05-10T17:54:17.958Z,14.87
2023-05-10T17:58:20.315Z,14.73
2023-05-10T18:02:22.258Z,14.51
2023-05-10T18:06:24.524Z,14.27
2023-05-10T18:10:26.871Z,14.08
2023-05-10T18:14:39.840Z,13.87
2023-05-10T18:18:45.317Z,13.69
2023-05-10T18:22:47.771Z,13.51
2023-05-10T18:26:49.797Z,13.34
2023-05-10T18:30:51.778Z,13.20
2023-05-10T18:34:55.649Z,12.99
2023-05-10T18:39:00.612Z,12.79
2023-05-10T18:43:06.259Z,12.63
2023-05-10T18:47:09.644Z,12.50
2023-05-10T18:51:13.350Z,12.38
2023-05-10T18:55:16.110Z,12.25
2023-05-10T18:59:23.087Z,12.13
2023-05-10T19:03:25.118Z,12.04
2023-05-10T19:07:27.007Z,11.93
2023-05-10T19:11:34.025Z,11.86
2023-05-10T19:15:36.170Z,11.76
2023-05-10T19:19:38.751Z,11.64
2023-05-10T19:23:41.460Z,11.56
2023-05-10T19:27:44.067Z,11.49
2023-05-10T19:31:46.408Z,11.42
2023-05-10T19:35:54.717Z,11.35
2023-05-10T19:39:56.627Z,11.30
2023-05-10T19:43:59.501Z,11.27
2023-05-10T19:48:01.500Z,11.22
2023-05-10T19:52:07.283Z,11.15
2023-05-10T19:56:09.146Z,11.06
2023-05-10T20:00:12.458Z,10.97
2023-05-10T20:04:14.460Z,10.90
2023-05-10T20:08:16.594Z,10.84
2023-05-10T20:12:18.541Z,10.77
2023-05-10T20:16:20.644Z,10.70
2023-05-10T20:20:23.139Z,10.64
2023-05-10T20:24:25.117Z,10.59
2023-05-10T20:28:28.669Z,10.54
2023-05-10T20:32:30.738Z,10.50
2023-05-10T20:36:32.689Z,10.47
2023-05-10T20:40:39.078Z,10.43
2023-05-10T20:44:41.122Z,10.39
2023-05-10T20:48:46.967Z,10.37
2023-05-10T20:52:52.390Z,10.35
2023-05-10T20:56:54.280Z,10.34
2023-05-10T21:00:56.391Z,10.32
2023-05-10T21:05:02.265Z,10.30
2023-05-10T21:09:04.829Z,10.27
2023-05-10T21:13:06.762Z,10.25
2023-05-10T21:17:08.799Z,10.23
2023-05-10T21:21:11.078Z,10.19
2023-05-10T21:25:13.698Z,10.15
2023-05-10T21:29:15.627Z,10.09
2023-05-10T21:33:17.506Z,10.06
2023-05-10T21:37:19.373Z,10.02
2023-05-10T21:41:21.380Z,9.99
2023-05-10T21:45:23.425Z,9.96
2023-05-10T21:49:25.551Z,9.93
2023-05-10T21:53:28.403Z,9.90
2023-05-10T21:57:30.615Z,9.87
2023-05-10T22:01:32.689Z,9.85
2023-05-10T22:05:34.597Z,9.82
2023-05-10T22:09:36.717Z,9.78
2023-05-10T22:13:38.544Z,9.73
2023-05-10T22:17:40.668Z,9.68
2023-05-10T22:21:42.658Z,9.62
2023-05-10T22:25:44.509Z,9.56
2023-05-10T22:29:48.109Z,9.51
2023-05-10T22:33:50.097Z,9.44
2023-05-10T22:37:51.945Z,9.40
2023-05-10T22:41:53.890Z,9.36
2023-05-10T22:45:55.699Z,9.32
2023-05-10T22:49:58.231Z,9.24
2023-05-10T22:54:00.229Z,9.18
2023-05-10T22:58:03.092Z,9.12
2023-05-10T23:02:05.780Z,9.06
2023-05-10T23:06:07.878Z,9.00
2023-05-10T23:10:10.066Z,8.92
2023-05-10T23:14:11.981Z,8.83
2023-05-10T23:18:13.817Z,8.73
2023-05-10T23:22:15.823Z,8.65
2023-05-10T23:26:18.085Z,8.59
2023-05-10T23:30:20.375Z,8.54
2023-05-10T23:34:22.240Z,8.50
2023-05-10T23:38:24.109Z,8.43
2023-05-10T23:42:32.313Z,8.34
2023-05-10T23:46:34.166Z,8.25
2023-05-10T23:50:36.679Z,8.15
2023-05-10T23:54:38.739Z,8.01
2023-05-10T23:58:40.549Z,7.89
